^^
Meteo Knjazevac Station Historical Data
Daily Summary for April 16, 2021 Units:  Both    English   Metric
Daily Weekly Monthly Yearly Custom
  High: Low: Average:
Temperature: 56.7 °F /  13.7 °C 52.7 °F /  11.5 °C 54.1 °F /  12.3 °C
Dew Point: 49.4 °F /  9.7 °C 47.8 °F /  8.8 °C 48.4 °F /  9.1 °C
Humidity: 85% 75% 81%
Wind Speed: 5mph /  8km/h - 1.8mph /  2.9km/h
Wind Gust: 6mph /  9.7km/h - -
Wind- - West
Pressure: 30.11 in /  1019.5 hPa 30.10 in /  1019.2 hPa -
Precipitation: 0.00 in /  0 mm    
Historical Graphs
 
 
Tabular Data for April 16, 2021
Time Temperature Dew Point Pressure Wind Wind Speed Wind Gust Humidity Rainfall Rate (Hourly) solar Conditions
00:00 56.7 °F /  13.7 °C 48.8 °F /  9.3 °C 30.11in /  1019.5hPa West 1mph /  1.6km/h 3mph /  4.8km/h 75% 0.00in /  0mm 0 W/m2
00:10 56.5 °F /  13.6 °C 49.4 °F /  9.7 °C 30.11in /  1019.5hPa WNW 1mph /  1.6km/h 5mph /  8km/h 77% 0.00in /  0mm 0 W/m2
00:20 56.1 °F /  13.4 °C 49 °F /  9.4 °C 30.11in /  1019.5hPa West 1mph /  1.6km/h 2mph /  3.2km/h 77% 0.00in /  0mm 0 W/m2
00:30 55.9 °F /  13.3 °C 49.2 °F /  9.6 °C 30.11in /  1019.5hPa West 1mph /  1.6km/h 4mph /  6.4km/h 78% 0.00in /  0mm 0 W/m2
00:40 55.6 °F /  13.1 °C 48.8 °F /  9.3 °C 30.11in /  1019.5hPa WSW 2mph /  3.2km/h 2mph /  3.2km/h 78% 0.00in /  0mm 0 W/m2
00:50 55.1 °F /  12.8 °C 48.4 °F /  9.1 °C 30.11in /  1019.5hPa West 2mph /  3.2km/h 3mph /  4.8km/h 78% 0.00in /  0mm 0 W/m2
01:00 54.9 °F /  12.7 °C 48.5 °F /  9.2 °C 30.11in /  1019.5hPa WNW 2mph /  3.2km/h 4mph /  6.4km/h 79% 0.00in /  0mm 0 W/m2
01:10 54.9 °F /  12.7 °C 48.5 °F /  9.2 °C 30.11in /  1019.5hPa WNW 1mph /  1.6km/h 4mph /  6.4km/h 79% 0.00in /  0mm 0 W/m2
01:20 54.6 °F /  12.6 °C 48.2 °F /  9 °C 30.11in /  1019.5hPa WSW 1mph /  1.6km/h 2mph /  3.2km/h 79% 0.00in /  0mm 0 W/m2
01:30 54.1 °F /  12.3 °C 47.8 °F /  8.8 °C 30.11in /  1019.5hPa Calm   2mph /  3.2km/h 79% 0.00in /  0mm 0 W/m2
01:40 54 °F /  12.2 °C 47.9 °F /  8.8 °C 30.11in /  1019.5hPa NNW 1mph /  1.6km/h 2mph /  3.2km/h 80% 0.00in /  0mm 0 W/m2
01:50 53.8 °F /  12.1 °C 47.8 °F /  8.8 °C 30.11in /  1019.5hPa WNW 2mph /  3.2km/h 3mph /  4.8km/h 80% 0.00in /  0mm 0 W/m2
02:00 53.6 °F /  12 °C 47.9 °F /  8.8 °C 30.11in /  1019.5hPa West 2mph /  3.2km/h 5mph /  8km/h 81% 0.00in /  0mm 0 W/m2
02:10 53.4 °F /  11.9 °C 48.4 °F /  9.1 °C 30.11in /  1019.5hPa West 2mph /  3.2km/h 5mph /  8km/h 83% 0.00in /  0mm 0 W/m2
02:20 53.2 °F /  11.8 °C 48.2 °F /  9 °C 30.11in /  1019.5hPa West 5mph /  8km/h 6mph /  9.7km/h 83% 0.00in /  0mm 0 W/m2
02:30 53.2 °F /  11.8 °C 48.2 °F /  9 °C 30.11in /  1019.5hPa West 2mph /  3.2km/h 6mph /  9.7km/h 83% 0.00in /  0mm 0 W/m2
02:40 52.9 °F /  11.6 °C 47.9 °F /  8.8 °C 30.11in /  1019.5hPa West 2mph /  3.2km/h 3mph /  4.8km/h 83% 0.00in /  0mm 0 W/m2
02:50 52.9 °F /  11.6 °C 48.2 °F /  9 °C 30.11in /  1019.5hPa WNW 3mph /  4.8km/h 5mph /  8km/h 84% 0.00in /  0mm 0 W/m2
03:00 53.2 °F /  11.8 °C 48.5 °F /  9.2 °C 30.11in /  1019.5hPa West 3mph /  4.8km/h 4mph /  6.4km/h 84% 0.00in /  0mm 0 W/m2
03:10 53.2 °F /  11.8 °C 48.2 °F /  9 °C 30.10in /  1019.2hPa Calm   4mph /  6.4km/h 83% 0.00in /  0mm 0 W/m2
03:20 52.8 °F /  11.6 °C 48.1 °F /  8.9 °C 30.11in /  1019.5hPa West 2mph /  3.2km/h 4mph /  6.4km/h 84% 0.00in /  0mm 0 W/m2
03:30 52.9 °F /  11.6 °C 48.5 °F /  9.2 °C 30.11in /  1019.5hPa WNW 3mph /  4.8km/h 6mph /  9.7km/h 85% 0.00in /  0mm 0 W/m2
03:40 52.9 °F /  11.6 °C 48.5 °F /  9.2 °C 30.11in /  1019.5hPa West 2mph /  3.2km/h 5mph /  8km/h 85% 0.00in /  0mm 0 W/m2
03:50 52.7 °F /  11.5 °C 48 °F /  8.9 °C 30.11in /  1019.5hPa West 2mph /  3.2km/h 4mph /  6.4km/h 84% 0.00in /  0mm 0 W/m2
Knjazevac, Serbia
Compliments of Weather Underground - 2 mb